createdAt,value
2022-12-20T00:03:33.370Z,100284.84
2022-12-20T00:06:00.183Z,100234.78
2022-12-20T00:08:26.925Z,100273.59
2022-12-20T00:10:53.658Z,100273.81
2022-12-20T00:13:20.454Z,100263.22
2022-12-20T00:15:47.151Z,100260.88
2022-12-20T00:18:14.233Z,100272.69
2022-12-20T00:20:41.080Z,100248.66
2022-12-20T00:23:07.896Z,100264.88
2022-12-20T00:25:34.695Z,100253.00
2022-12-20T00:28:03.315Z,100245.97
2022-12-20T00:30:30.240Z,100255.66
2022-12-20T00:32:57.004Z,100251.28
2022-12-20T00:35:23.789Z,100247.66
2022-12-20T00:37:50.598Z,100273.63
2022-12-20T00:40:17.425Z,100268.38
2022-12-20T00:42:44.145Z,100264.00
2022-12-20T00:45:11.184Z,100258.00
2022-12-20T00:47:37.965Z,100260.34
2022-12-20T00:50:05.438Z,100258.69
2022-12-20T00:52:32.186Z,100251.00
2022-12-20T00:54:58.936Z,100264.06
2022-12-20T00:57:25.796Z,100236.50
2022-12-20T00:59:52.524Z,100273.53
2022-12-20T01:02:19.495Z,100273.63
2022-12-20T01:04:46.476Z,100273.41
2022-12-20T01:07:13.200Z,100253.38
2022-12-20T01:09:39.955Z,100271.53
2022-12-20T01:12:06.929Z,100276.09
2022-12-20T01:14:33.958Z,100257.78
2022-12-20T01:17:00.820Z,100265.53
2022-12-20T01:19:27.772Z,100255.09
2022-12-20T01:21:54.514Z,100259.53
2022-12-20T01:24:21.578Z,100261.19
2022-12-20T01:26:48.822Z,100263.97
2022-12-20T01:29:16.107Z,100248.25
2022-12-20T01:31:43.767Z,100256.16
2022-12-20T01:34:11.821Z,100251.81
2022-12-20T01:36:38.941Z,100243.16
2022-12-20T01:39:11.407Z,100256.91
2022-12-20T01:41:38.990Z,100259.81
2022-12-20T01:44:17.649Z,100259.66
2022-12-20T01:46:46.285Z,100261.59
2022-12-20T01:49:39.729Z,100253.50
2022-12-20T01:52:17.844Z,100250.44
2022-12-20T01:54:50.230Z,100262.41
2022-12-20T01:57:22.761Z,100262.56
2022-12-20T01:59:52.602Z,100251.34
2022-12-20T02:02:19.411Z,100254.69
2022-12-20T02:04:46.314Z,100253.88
2022-12-20T02:07:20.483Z,100273.69
2022-12-20T02:09:49.009Z,100257.19
2022-12-20T02:12:23.232Z,100252.25
2022-12-20T02:15:08.446Z,100255.25
2022-12-20T02:17:57.903Z,100251.91
2022-12-20T02:20:36.975Z,100257.00
2022-12-20T02:23:28.103Z,100250.25
2022-12-20T02:26:00.956Z,100252.97
2022-12-20T02:28:49.740Z,100248.66
2022-12-20T02:31:21.805Z,100241.53
2022-12-20T02:33:50.362Z,100220.44
2022-12-20T02:36:18.347Z,100225.47
2022-12-20T02:38:45.482Z,100205.78
2022-12-20T02:41:18.452Z,100219.47
2022-12-20T02:44:09.097Z,100229.41
2022-12-20T02:46:37.186Z,100221.59
2022-12-20T02:49:11.510Z,100226.97
2022-12-20T02:51:40.066Z,100220.97
2022-12-20T02:54:07.029Z,100212.56
2022-12-20T02:56:41.912Z,100219.81
2022-12-20T02:59:15.374Z,100233.91
2022-12-20T03:01:48.198Z,100218.34
2022-12-20T03:04:16.711Z,100207.69
2022-12-20T03:07:04.852Z,100228.50
2022-12-20T03:09:34.252Z,100217.34
2022-12-20T03:12:01.515Z,100217.63
2022-12-20T03:14:28.632Z,100216.63
2022-12-20T03:16:55.559Z,100216.41
2022-12-20T03:19:22.893Z,100192.94
2022-12-20T03:21:49.665Z,100212.13
2022-12-20T03:24:17.132Z,100214.91
2022-12-20T03:26:44.063Z,100223.50
2022-12-20T03:29:11.002Z,100218.66
2022-12-20T03:31:37.799Z,100212.34
2022-12-20T03:34:05.205Z,100221.97
2022-12-20T03:36:32.041Z,100204.72
2022-12-20T03:38:59.393Z,100229.84
2022-12-20T03:41:26.599Z,100225.38
2022-12-20T03:43:53.362Z,100224.53
2022-12-20T03:46:20.224Z,100199.41
2022-12-20T03:48:47.027Z,100219.34
2022-12-20T03:51:13.819Z,100218.66
2022-12-20T03:53:40.550Z,100212.88
2022-12-20T03:56:07.404Z,100210.03
2022-12-20T03:58:34.126Z,100218.03
2022-12-20T04:01:00.882Z,100209.84
2022-12-20T04:03:27.768Z,100222.16
2022-12-20T04:05:54.545Z,100216.81
2022-12-20T04:08:21.306Z,100221.16
2022-12-20T04:11:06.938Z,100205.59
2022-12-20T04:13:33.798Z,100215.84
2022-12-20T04:16:01.379Z,100223.66
2022-12-20T04:18:28.364Z,100200.09
2022-12-20T04:20:55.445Z,100196.88
2022-12-20T04:23:22.277Z,100190.94
2022-12-20T04:25:48.990Z,100199.56
2022-12-20T04:28:15.757Z,100198.78
2022-12-20T04:30:42.555Z,100210.09
2022-12-20T04:33:09.386Z,100204.09
2022-12-20T04:35:37.732Z,100201.56
2022-12-20T04:38:04.998Z,100205.69
2022-12-20T04:40:31.774Z,100185.53
2022-12-20T04:42:58.518Z,100191.22
2022-12-20T04:45:25.511Z,100200.38
2022-12-20T04:47:52.387Z,100193.91
2022-12-20T04:50:19.420Z,100181.88
2022-12-20T04:53:04.837Z,100177.94
2022-12-20T04:55:32.179Z,100191.44
2022-12-20T04:58:03.752Z,100182.47
2022-12-20T05:00:35.010Z,100193.19
2022-12-20T05:03:02.440Z,100196.59
2022-12-20T05:05:29.320Z,100186.66
2022-12-20T05:07:56.775Z,100201.75
2022-12-20T05:10:24.083Z,100200.38
2022-12-20T05:12:50.929Z,100208.72
2022-12-20T05:15:17.926Z,100195.00
2022-12-20T05:17:44.718Z,100188.19
2022-12-20T05:20:12.076Z,100198.31
2022-12-20T05:22:57.444Z,100194.03
2022-12-20T05:25:42.924Z,100191.50
2022-12-20T05:28:09.773Z,100211.63
2022-12-20T05:30:37.075Z,100200.41
2022-12-20T05:33:04.183Z,100190.41
2022-12-20T05:35:31.007Z,100185.53
2022-12-20T05:37:57.900Z,100186.06
2022-12-20T05:40:24.688Z,100198.50
2022-12-20T05:42:51.479Z,100165.59
2022-12-20T05:45:18.186Z,100188.78
2022-12-20T05:47:45.597Z,100171.25
2022-12-20T05:50:18.501Z,100183.38
2022-12-20T05:52:46.265Z,100173.06
2022-12-20T05:55:13.894Z,100166.13
2022-12-20T05:57:40.664Z,100172.19
2022-12-20T06:00:08.324Z,100146.28
2022-12-20T06:02:35.430Z,100135.00
2022-12-20T06:05:02.988Z,100158.41
2022-12-20T06:07:29.880Z,100167.88
2022-12-20T06:09:56.789Z,100188.78
2022-12-20T06:12:23.698Z,100193.81
2022-12-20T06:14:51.491Z,100195.06
2022-12-20T06:17:20.185Z,100190.97
2022-12-20T06:19:47.071Z,100201.31
2022-12-20T06:22:13.864Z,100186.19
2022-12-20T06:24:47.609Z,100160.22
2022-12-20T06:27:15.284Z,100153.94
2022-12-20T06:29:42.007Z,100137.94
2022-12-20T06:32:08.884Z,100147.03
2022-12-20T06:34:35.755Z,100144.59
2022-12-20T06:39:39.227Z,100185.38
2022-12-20T06:42:05.988Z,100177.03
2022-12-20T06:44:32.908Z,100184.28
2022-12-20T06:46:59.642Z,100168.28
2022-12-20T06:49:26.369Z,100137.34
2022-12-20T06:51:53.178Z,100175.22
2022-12-20T06:54:19.964Z,100160.38
2022-12-20T06:56:46.788Z,100106.06
2022-12-20T06:59:13.843Z,100122.94
2022-12-20T07:01:40.654Z,100173.97
2022-12-20T07:04:07.499Z,100164.06
2022-12-20T07:06:34.592Z,100164.81
2022-12-20T07:09:01.371Z,100171.09
2022-12-20T07:11:28.138Z,100177.25
2022-12-20T07:13:58.732Z,100176.47
2022-12-20T07:16:26.063Z,100174.56
2022-12-20T07:18:53.878Z,100186.47
2022-12-20T07:21:21.394Z,100188.28
2022-12-20T07:23:48.246Z,100183.59
2022-12-20T07:26:15.638Z,100188.81
2022-12-20T07:28:43.057Z,100177.41
2022-12-20T07:31:09.850Z,100182.63
2022-12-20T07:33:37.467Z,100113.31
2022-12-20T07:36:10.286Z,100155.41
2022-12-20T07:38:37.408Z,100150.13
2022-12-20T07:41:11.818Z,100155.44
2022-12-20T07:43:38.595Z,100150.38
2022-12-20T07:46:07.582Z,100117.63
2022-12-20T07:48:36.264Z,100160.63
2022-12-20T07:51:10.032Z,100159.56
2022-12-20T07:53:45.813Z,100151.75
2022-12-20T07:56:14.057Z,100144.06
2022-12-20T07:58:43.410Z,100157.03
2022-12-20T08:01:11.511Z,100152.63
2022-12-20T08:03:49.930Z,100170.72
2022-12-20T08:06:18.895Z,100158.41
2022-12-20T08:08:53.776Z,100142.75
2022-12-20T08:11:22.688Z,100148.72
2022-12-20T08:13:57.536Z,100107.47
2022-12-20T08:16:25.116Z,100108.13
2022-12-20T08:18:52.104Z,100143.50
2022-12-20T08:21:19.262Z,100141.78
2022-12-20T08:23:46.081Z,100132.91
2022-12-20T08:26:12.838Z,100136.59
2022-12-20T08:28:39.687Z,100141.97
2022-12-20T08:31:08.771Z,100139.94
2022-12-20T08:33:36.918Z,100131.34
2022-12-20T08:36:07.094Z,100129.81
2022-12-20T08:38:34.508Z,100117.47
2022-12-20T08:41:13.793Z,100123.38
2022-12-20T08:43:41.495Z,100114.03
2022-12-20T08:46:12.623Z,100115.81
2022-12-20T08:48:40.140Z,100125.16
2022-12-20T08:51:09.253Z,100124.94
2022-12-20T08:53:36.947Z,100127.47
2022-12-20T08:56:15.407Z,100120.97
2022-12-20T08:58:43.876Z,100131.00
2022-12-20T09:01:13.614Z,100119.25
2022-12-20T09:03:41.138Z,100121.28
2022-12-20T09:06:16.629Z,100107.28
2022-12-20T09:08:43.781Z,100079.16
2022-12-20T09:11:16.026Z,100093.44
2022-12-20T09:13:44.907Z,100056.97
2022-12-20T09:16:14.630Z,100111.84
2022-12-20T09:18:42.142Z,100114.19
2022-12-20T09:21:10.214Z,100091.09
2022-12-20T09:23:38.484Z,100117.47
2022-12-20T09:26:11.177Z,100108.31
2022-12-20T09:28:38.024Z,100100.84
2022-12-20T09:31:08.061Z,100089.31
2022-12-20T09:33:35.609Z,100058.97
2022-12-20T09:36:03.672Z,100105.03
2022-12-20T09:38:32.318Z,100103.03
2022-12-20T09:41:03.009Z,100103.81
2022-12-20T09:43:30.559Z,100104.06
2022-12-20T09:45:59.993Z,100099.16
2022-12-20T09:48:33.359Z,100088.78
2022-12-20T09:51:29.167Z,100090.88
2022-12-20T09:54:20.651Z,100096.47
2022-12-20T09:57:03.363Z,100070.38
2022-12-20T09:59:34.179Z,100073.44
2022-12-20T10:02:43.917Z,100085.31
2022-12-20T10:04:58.525Z,100075.66
2022-12-20T10:07:39.167Z,100067.53
2022-12-20T10:10:11.561Z,100062.19
2022-12-20T10:13:05.174Z,100065.84
2022-12-20T10:15:46.636Z,100069.03
2022-12-20T10:18:32.860Z,100066.59
2022-12-20T10:21:25.737Z,100014.69
2022-12-20T10:24:02.570Z,100058.00
2022-12-20T10:26:30.353Z,100057.72
2022-12-20T10:28:57.133Z,100011.31
2022-12-20T10:31:24.076Z,100038.78
2022-12-20T10:33:51.255Z,100038.34
2022-12-20T10:36:19.200Z,100035.06
2022-12-20T10:38:50.774Z,100045.03
2022-12-20T10:41:23.971Z,100039.75
2022-12-20T10:44:00.132Z,100045.34
2022-12-20T10:46:45.691Z,100028.06
2022-12-20T10:49:23.542Z,100019.56
2022-12-20T10:51:55.646Z,100016.06
2022-12-20T10:54:28.733Z,99987.34
2022-12-20T10:57:02.222Z,100000.91
2022-12-20T10:59:34.754Z,99979.44
2022-12-20T11:02:03.513Z,99983.19
2022-12-20T11:04:34.850Z,99972.75
2022-12-20T11:07:24.283Z,99951.50
2022-12-20T11:09:56.678Z,99967.47
2022-12-20T11:12:23.714Z,99962.22
2022-12-20T11:14:50.633Z,99967.66
2022-12-20T11:17:27.657Z,99956.66
2022-12-20T11:20:13.736Z,99963.94
2022-12-20T11:22:51.736Z,99940.84
2022-12-20T11:25:44.667Z,99956.16
2022-12-20T11:28:11.384Z,99958.44
2022-12-20T11:31:01.256Z,99962.25
2022-12-20T11:33:47.359Z,99955.84
2022-12-20T11:36:45.767Z,99929.50
2022-12-20T11:39:37.183Z,99935.19
2022-12-20T11:42:17.157Z,99918.72
2022-12-20T11:44:53.919Z,99928.19
2022-12-20T11:48:05.749Z,99929.28
2022-12-20T11:51:01.869Z,99939.09
2022-12-20T11:53:36.345Z,99920.09
2022-12-20T11:56:11.307Z,99911.97
2022-12-20T11:58:56.313Z,99907.41
2022-12-20T12:01:37.683Z,99908.34
2022-12-20T12:04:14.831Z,99900.25
2022-12-20T12:06:46.227Z,99905.28
2022-12-20T12:09:46.512Z,99900.50
2022-12-20T12:12:22.982Z,99894.22
2022-12-20T12:15:00.888Z,99906.06
2022-12-20T12:17:57.187Z,99899.84
2022-12-20T12:20:38.336Z,99881.44
2022-12-20T12:23:16.633Z,99892.63
2022-12-20T12:25:43.435Z,99883.16
2022-12-20T12:28:14.511Z,99891.59
2022-12-20T12:30:46.240Z,99878.50
2022-12-20T12:33:37.673Z,99901.41
2022-12-20T12:36:29.696Z,99893.56
2022-12-20T12:39:01.853Z,99905.03
2022-12-20T12:42:04.914Z,99883.72
2022-12-20T12:44:34.947Z,99853.72
2022-12-20T12:47:08.313Z,99869.09
2022-12-20T12:49:35.298Z,99818.19
2022-12-20T12:52:05.440Z,99798.38
2022-12-20T12:54:37.246Z,99858.75
2022-12-20T12:57:19.791Z,99860.72
2022-12-20T12:59:49.003Z,99859.53
2022-12-20T13:02:16.399Z,99867.09
2022-12-20T13:05:02.090Z,99864.19
2022-12-20T13:07:49.107Z,99865.38
2022-12-20T13:10:15.926Z,99861.31
2022-12-20T13:12:42.610Z,99854.50
2022-12-20T13:15:21.452Z,99855.03
2022-12-20T13:18:24.714Z,99853.09
2022-12-20T13:21:39.529Z,99847.19
2022-12-20T13:24:34.042Z,99847.25
2022-12-20T13:27:02.407Z,99853.53
2022-12-20T13:29:57.649Z,99856.66
2022-12-20T13:32:53.265Z,99852.34
2022-12-20T13:35:25.920Z,99847.50
2022-12-20T13:38:00.755Z,99833.69
2022-12-20T13:40:54.925Z,99834.56
2022-12-20T13:43:24.294Z,99847.75
2022-12-20T13:45:55.283Z,99842.53
2022-12-20T13:48:28.837Z,99849.59
2022-12-20T13:50:56.924Z,99849.69
2022-12-20T13:53:27.357Z,99856.88
2022-12-20T13:55:55.737Z,99852.69
2022-12-20T13:58:27.032Z,99859.50
2022-12-20T14:01:03.591Z,99876.31
2022-12-20T14:03:31.774Z,99875.34
2022-12-20T14:06:04.634Z,99867.63
2022-12-20T14:08:37.600Z,99877.59
2022-12-20T14:11:13.738Z,99880.63
2022-12-20T14:13:41.377Z,99869.81
2022-12-20T14:16:16.642Z,99841.16
2022-12-20T14:18:51.583Z,99851.34
2022-12-20T14:21:19.244Z,99849.50
2022-12-20T14:23:50.802Z,99850.84
2022-12-20T14:26:23.186Z,99862.34
2022-12-20T14:28:52.987Z,99841.81
2022-12-20T14:31:26.838Z,99847.16
2022-12-20T14:34:24.456Z,99855.22
2022-12-20T14:37:33.977Z,99843.78
2022-12-20T14:40:09.964Z,99878.09
2022-12-20T14:42:40.008Z,99868.03
2022-12-20T14:45:09.491Z,99865.97
2022-12-20T14:47:37.705Z,99854.69
2022-12-20T14:50:17.490Z,99831.03
2022-12-20T14:52:44.627Z,99837.09
2022-12-20T14:55:25.188Z,99845.25
2022-12-20T14:57:56.837Z,99844.41
2022-12-20T15:00:30.773Z,99842.88
2022-12-20T15:03:01.078Z,99838.19
2022-12-20T15:05:43.166Z,99827.34
2022-12-20T15:08:33.195Z,99822.44
2022-12-20T15:11:23.117Z,99818.09
2022-12-20T15:13:53.426Z,99803.03
2022-12-20T15:16:29.438Z,99805.09
2022-12-20T15:18:56.270Z,99801.16
2022-12-20T15:21:33.432Z,99801.16
2022-12-20T15:24:02.470Z,99786.75
2022-12-20T15:26:31.183Z,99764.25
2022-12-20T15:28:58.093Z,99781.91
2022-12-20T15:31:32.871Z,99791.72
2022-12-20T15:34:02.554Z,99778.63
2022-12-20T15:36:30.331Z,99781.78
2022-12-20T15:39:15.037Z,99788.72
2022-12-20T15:41:47.441Z,99794.84
2022-12-20T15:44:23.691Z,99791.16
2022-12-20T15:46:51.390Z,99801.72
2022-12-20T15:49:30.521Z,99798.94
2022-12-20T15:51:58.041Z,99806.72
2022-12-20T15:54:27.785Z,99800.44
2022-12-20T15:56:56.287Z,99797.09
2022-12-20T16:02:28.153Z,99783.75
2022-12-20T16:04:55.607Z,99790.97
2022-12-20T16:07:23.091Z,99791.94
2022-12-20T16:09:49.989Z,99786.66
2022-12-20T16:12:21.463Z,99790.16
2022-12-20T16:14:48.358Z,99787.06
2022-12-20T16:17:16.161Z,99791.47
2022-12-20T16:19:43.705Z,99802.22
2022-12-20T16:22:18.680Z,99795.16
2022-12-20T16:24:46.368Z,99777.22
2022-12-20T16:27:13.289Z,99799.00
2022-12-20T16:29:41.633Z,99788.69
2022-12-20T16:32:20.391Z,99793.72
2022-12-20T16:34:49.323Z,99788.47
2022-12-20T16:37:16.399Z,99785.16
2022-12-20T16:39:43.249Z,99788.47
2022-12-20T16:42:18.191Z,99785.53
2022-12-20T16:44:46.256Z,99772.81
2022-12-20T16:47:14.173Z,99786.63
2022-12-20T16:49:44.625Z,99780.47
2022-12-20T16:52:18.683Z,99793.06
2022-12-20T16:54:45.524Z,99799.81
2022-12-20T16:57:12.328Z,99803.78
2022-12-20T16:59:39.036Z,99796.91
2022-12-20T17:02:21.315Z,99806.00
2022-12-20T17:04:48.120Z,99799.06
2022-12-20T17:07:16.407Z,99800.59
2022-12-20T17:09:43.239Z,99789.88
2022-12-20T17:12:18.225Z,99788.16
2022-12-20T17:14:45.129Z,99783.38
2022-12-20T17:17:31.209Z,99753.41
2022-12-20T17:20:11.148Z,99788.69
2022-12-20T17:22:38.050Z,99770.75
2022-12-20T17:25:05.189Z,99778.41
2022-12-20T17:27:32.078Z,99772.09
2022-12-20T17:29:58.876Z,99757.69
2022-12-20T17:32:26.244Z,99777.47
2022-12-20T17:34:53.166Z,99753.34
2022-12-20T17:37:21.166Z,99773.06
2022-12-20T17:39:48.281Z,99774.53
2022-12-20T17:42:15.692Z,99773.06
2022-12-20T17:44:43.077Z,99768.66
2022-12-20T17:47:09.906Z,99761.91
2022-12-20T17:49:36.671Z,99761.91
2022-12-20T17:52:04.311Z,99766.75
2022-12-20T17:54:38.941Z,99757.31
2022-12-20T17:57:13.150Z,99737.00
2022-12-20T17:59:40.938Z,99738.78
2022-12-20T18:02:21.092Z,99737.31
2022-12-20T18:04:48.356Z,99728.56
2022-12-20T18:07:15.181Z,99711.94
2022-12-20T18:09:42.012Z,99711.81
2022-12-20T18:12:10.683Z,99709.13
2022-12-20T18:14:37.461Z,99696.88
2022-12-20T18:17:04.387Z,99700.53
2022-12-20T18:19:32.022Z,99713.97
2022-12-20T18:22:00.249Z,99707.41
2022-12-20T18:24:27.649Z,99717.97
2022-12-20T18:26:54.445Z,99739.59
2022-12-20T18:29:21.784Z,99728.56
2022-12-20T18:31:48.811Z,99723.03
2022-12-20T18:34:15.651Z,99728.59
2022-12-20T18:36:43.530Z,99698.31
2022-12-20T18:39:13.365Z,99717.63
2022-12-20T18:41:43.257Z,99711.75
2022-12-20T18:44:11.481Z,99704.53
2022-12-20T18:46:38.589Z,99715.19
2022-12-20T18:49:05.841Z,99704.72
2022-12-20T18:51:38.892Z,99687.91
2022-12-20T18:54:08.674Z,99699.91
2022-12-20T18:56:38.031Z,99679.25
2022-12-20T18:59:14.201Z,99680.97
2022-12-20T19:01:43.594Z,99681.84
2022-12-20T19:04:11.966Z,99687.91
2022-12-20T19:06:39.293Z,99672.81
2022-12-20T19:09:09.878Z,99670.38
2022-12-20T19:11:37.010Z,99643.66
2022-12-20T19:14:04.320Z,99651.13
2022-12-20T19:16:40.015Z,99664.31
2022-12-20T19:19:08.748Z,99671.34
2022-12-20T19:21:37.990Z,99644.19
2022-12-20T19:24:07.161Z,99658.03
2022-12-20T19:26:36.949Z,99645.38
2022-12-20T19:29:05.329Z,99655.53
2022-12-20T19:31:36.664Z,99662.53
2022-12-20T19:34:07.187Z,99668.84
2022-12-20T19:36:43.465Z,99659.03
2022-12-20T19:39:17.063Z,99658.03
2022-12-20T19:41:54.922Z,99649.34
2022-12-20T19:44:27.025Z,99651.97
2022-12-20T19:46:53.932Z,99646.84
2022-12-20T19:49:21.467Z,99655.75
2022-12-20T19:51:50.543Z,99641.44
2022-12-20T19:54:17.640Z,99637.41
2022-12-20T19:56:44.407Z,99624.59
2022-12-20T19:59:14.064Z,99594.97
2022-12-20T20:01:41.420Z,99642.91
2022-12-20T20:04:10.238Z,99623.38
2022-12-20T20:06:37.079Z,99626.44
2022-12-20T20:09:04.399Z,99638.41
2022-12-20T20:11:31.321Z,99630.50
2022-12-20T20:13:58.454Z,99622.94
2022-12-20T20:16:25.670Z,99627.53
2022-12-20T20:18:54.124Z,99614.41
2022-12-20T20:21:22.885Z,99623.63
2022-12-20T20:23:51.477Z,99618.50
2022-12-20T20:26:21.379Z,99632.59
2022-12-20T20:28:48.540Z,99618.56
2022-12-20T20:31:17.346Z,99628.25
2022-12-20T20:33:45.069Z,99643.41
2022-12-20T20:36:17.770Z,99644.00
2022-12-20T20:38:45.817Z,99630.03
2022-12-20T20:41:13.016Z,99586.69
2022-12-20T20:43:40.579Z,99638.53
2022-12-20T20:46:11.663Z,99640.13
2022-12-20T20:48:39.939Z,99634.06
2022-12-20T20:51:07.411Z,99599.38
2022-12-20T20:53:35.005Z,99609.81
2022-12-20T20:56:03.360Z,99600.19
2022-12-20T20:58:30.635Z,99593.38
2022-12-20T21:00:59.609Z,99599.66
2022-12-20T21:03:27.525Z,99585.97
2022-12-20T21:08:41.712Z,99588.69
2022-12-20T21:11:09.287Z,99583.63
2022-12-20T21:13:36.879Z,99577.50
2022-12-20T21:16:12.841Z,99588.19
2022-12-20T21:18:39.959Z,99595.03
2022-12-20T21:21:11.733Z,99598.78
2022-12-20T21:23:39.899Z,99606.69
2022-12-20T21:26:07.825Z,99592.53
2022-12-20T21:28:35.859Z,99578.56
2022-12-20T21:31:05.247Z,99564.59
2022-12-20T21:33:32.387Z,99582.84
2022-12-20T21:36:01.439Z,99575.38
2022-12-20T21:38:28.412Z,99584.13
2022-12-20T21:41:08.121Z,99571.09
2022-12-20T21:43:35.298Z,99586.47
2022-12-20T21:46:02.107Z,99571.50
2022-12-20T21:48:29.794Z,99565.13
2022-12-20T21:50:59.908Z,99578.56
2022-12-20T21:53:26.736Z,99551.34
2022-12-20T21:55:57.662Z,99563.53
2022-12-20T21:58:25.435Z,99569.66
2022-12-20T22:00:55.122Z,99541.25
2022-12-20T22:03:23.999Z,99558.41
2022-12-20T22:05:53.483Z,99553.19
2022-12-20T22:08:21.614Z,99559.19
2022-12-20T22:10:50.075Z,99545.44
2022-12-20T22:13:16.908Z,99540.19
2022-12-20T22:15:43.714Z,99551.59
2022-12-20T22:18:10.510Z,99526.63
2022-12-20T22:20:37.309Z,99549.88
2022-12-20T22:23:04.868Z,99538.16
2022-12-20T22:25:31.841Z,99529.47
2022-12-20T22:27:58.674Z,99496.91
2022-12-20T22:30:25.397Z,99522.00
2022-12-20T22:32:52.125Z,99537.88
2022-12-20T22:35:22.675Z,99529.03
2022-12-20T22:37:50.324Z,99507.59
2022-12-20T22:40:17.305Z,99538.53
2022-12-20T22:42:44.159Z,99523.78
2022-12-20T22:45:11.501Z,99516.59
2022-12-20T22:50:24.754Z,99501.13
2022-12-20T22:52:52.404Z,99496.63
2022-12-20T22:55:19.158Z,99494.66
2022-12-20T22:57:45.824Z,99452.66
2022-12-20T23:00:13.250Z,99489.38
2022-12-20T23:02:43.152Z,99475.34
2022-12-20T23:05:10.028Z,99479.69
2022-12-20T23:07:36.790Z,99456.53
2022-12-20T23:10:03.756Z,99450.41
2022-12-20T23:12:49.105Z,99456.66
2022-12-20T23:15:34.491Z,99474.44
2022-12-20T23:18:01.128Z,99466.38
2022-12-20T23:20:46.654Z,99465.66
2022-12-20T23:23:13.313Z,99469.22
2022-12-20T23:25:40.052Z,99473.50
2022-12-20T23:28:06.737Z,99473.19
2022-12-20T23:30:33.469Z,99470.28
2022-12-20T23:33:00.187Z,99462.78
2022-12-20T23:35:27.051Z,99431.03
2022-12-20T23:37:56.028Z,99480.91
2022-12-20T23:40:22.732Z,99454.22
2022-12-20T23:42:52.515Z,99463.44
2022-12-20T23:45:19.201Z,99435.19
2022-12-20T23:47:45.930Z,99432.22
2022-12-20T23:50:12.597Z,99474.44
2022-12-20T23:52:39.437Z,99436.44
2022-12-20T23:55:06.654Z,99442.84
2022-12-20T23:57:33.455Z,99446.91
